Aeroporto :
LOGIN :

Iscrizione | Disclaimer

   EN    FR    IT 

 










Sommario :    VFR   VFR Marginale   IFR   IFR Intensivo   IFR Molto Intensivo
Visibilità : 
Base nubi : 
>= 8 km
>= 3000ft
5 / 8 km
1000 / 3000 ft
1500m / 5 km
500 / 1000 ft
800 / 1500m
200 / 500 ft
< 800m
< 200 ft
Simboli :   Temporali  Nebbia  Neve Forte  Precipitazioni Forti  Vento > 20 kt
SIGMETs :   Varie  Temporali  Ghiacco  Turbolenza  Onda orograficha  Ceneri Vulcaniche






- Altitudine del aeroporto : 106 ft
- Codice IATA : NRN


EDLV - Weeze

ULTIMO METAR :
  • 120520Z 20009KT 9999 BKN017 05/03 Q1001

METARs OBSOLETI :
  • 120450Z 19009KT 9999 BKN036 04/03 Q1001
  • 120420Z 18009KT CAVOK 04/03 Q1001
  • 120350Z 20010KT CAVOK 04/03 Q1001

TAF TAF EDLV
Valido dal 12 a 06 ore il 13 a 06 ore UTC


120500Z 1206/1306 18010KT 9999 BKN030
TEMPO 1207/1210 SHRA BKN012TCU
TEMPO 1210/1215 20015G25KT SHRAGS BKN012CB
TEMPO 1300/1306 4000 SHRA BKN010CB



MetMap, La meteo Aeronautica in un colpo d'occhio ! - Copyright ORBIFLY Dicembre 2007 - Disclaimer

ORBIFLY MET'MAP TEAM :

Programmazione e sviluppo : Alexandra Zaïnal
Concezione e sviluppo : Baudouin d'Aumeries
Co-Programmazione e sviluppo : Marc-Olivier Méhu
Supporto tecnico e logistico : Manuel Goepfert
Aiuto per la traduzione : Arnaldo La Scala

Contatto : metmap@orbifly.com




FONTI E CREDITI :

   NOAA